Time;durP1;ratioP1;P1;durP2;ratioP2;P2;SDS_P1;SDS_P2;PMS_P1;PMS_P2;Temp;Humidity;BMP_temperature;BMP_pressure;BME280_temperature;BME280_humidity;BME280_pressure;Samples;Min_cycle;Max_cycle;Signal;HPM_P1;HPM_P2
2021/08/25 00:00:54;;;;;;;7.72;4.32;;;;;;;23.67;49.67;99922.22;5107926;28;20067;-22
2021/08/25 00:03:19;;;;;;;7.35;4.30;;;;;;;23.50;49.98;99919.38;5089568;28;20459;-22
2021/08/25 00:05:45;;;;;;;6.78;4.13;;;;;;;23.43;50.05;99921.72;5089673;28;20046;-22
2021/08/25 00:08:10;;;;;;;7.22;4.72;;;;;;;22.97;51.38;99914.56;5107663;28;20084;-22
2021/08/25 00:10:36;;;;;;;6.53;3.80;;;;;;;23.11;51.11;99915.38;5107835;28;20031;-22
2021/08/25 00:13:06;;;;;;;7.78;4.05;;;;;;;23.25;50.90;99912.59;5106803;28;20046;-22
2021/08/25 00:15:38;;;;;;;6.25;4.07;;;;;;;23.39;50.32;99912.56;5107700;28;20107;-22
2021/08/25 00:18:05;;;;;;;5.82;4.25;;;;;;;23.12;51.20;99905.28;5107555;28;20035;-22
2021/08/25 00:20:30;;;;;;;8.63;4.70;;;;;;;22.76;51.90;99914.19;5107433;28;20535;-22
2021/08/25 00:22:56;;;;;;;8.55;4.50;;;;;;;22.99;51.53;99910.44;5107250;28;20032;-22
2021/08/25 00:25:22;;;;;;;6.60;3.95;;;;;;;23.19;50.74;99911.09;5107489;28;20027;-22
2021/08/25 00:27:47;;;;;;;7.03;4.13;;;;;;;23.04;50.77;99888.59;5107591;28;20034;-21
2021/08/25 00:30:13;;;;;;;7.25;4.30;;;;;;;22.92;51.00;99906.50;5107810;28;20035;-22
2021/08/25 00:32:38;;;;;;;7.70;4.13;;;;;;;23.13;50.57;99905.00;5107473;28;20040;-22
2021/08/25 00:35:04;;;;;;;7.38;4.25;;;;;;;23.04;50.74;99898.66;5107401;28;20034;-22
2021/08/25 00:37:30;;;;;;;10.10;4.32;;;;;;;23.01;50.85;99899.25;5107189;28;20482;-22
2021/08/25 00:39:55;;;;;;;7.55;4.60;;;;;;;22.89;50.97;99912.59;5107424;28;20487;-22
2021/08/25 00:42:21;;;;;;;7.50;4.60;;;;;;;23.01;50.95;99905.53;5107233;28;20034;-22
2021/08/25 00:44:46;;;;;;;11.02;4.47;;;;;;;22.06;53.11;99881.53;5107727;28;20024;-22
2021/08/25 00:47:16;;;;;;;8.48;4.90;;;;;;;22.20;52.58;99891.63;5107992;28;20039;-22
2021/08/25 00:49:43;;;;;;;6.97;4.47;;;;;;;22.49;52.17;99899.50;5107259;28;20036;-22
2021/08/25 00:52:09;;;;;;;;;;;;;;;22.34;52.03;99892.47;5107384;28;20058;-22
2021/08/25 00:54:34;;;;;;;8.68;4.85;;;;;;;22.63;51.29;99907.66;5107334;28;19950;-22
2021/08/25 00:57:00;;;;;;;7.05;4.43;;;;;;;22.94;49.87;99904.28;5107416;28;20032;-22
2021/08/25 00:59:25;;;;;;;9.07;5.10;;;;;;;22.75;50.02;99899.00;5088919;28;20484;-22
2021/08/25 01:02:13;;;;;;;8.60;4.65;;;;;;;22.49;50.82;99893.28;5088981;28;20094;-22
2021/08/25 01:05:05;;;;;;;6.93;4.90;;;;;;;22.60;50.34;99911.00;5091633;28;20074;-22
2021/08/25 01:07:33;;;;;;;6.57;4.40;;;;;;;22.04;50.86;99889.19;5085365;28;20478;-22
2021/08/25 01:10:00;;;;;;;7.45;4.90;;;;;;;21.71;51.62;99909.34;5088716;28;20441;-22
2021/08/25 01:12:25;;;;;;;9.00;4.70;;;;;;;21.82;51.28;99898.03;5107122;28;20407;-21
2021/08/25 01:14:52;;;;;;;7.22;5.13;;;;;;;21.48;51.95;99898.31;5107144;28;20053;-22
2021/08/25 01:17:21;;;;;;;7.80;5.35;;;;;;;21.32;52.23;99908.56;5107355;28;20028;-22
2021/08/25 01:20:00;;;;;;;9.57;5.20;;;;;;;21.64;51.81;99913.25;5107424;28;20040;-22
2021/08/25 01:22:26;;;;;;;7.30;5.07;;;;;;;20.80;53.36;99900.34;5090652;28;20039;-21
2021/08/25 01:24:52;;;;;;;13.18;5.35;;;;;;;20.98;54.33;99896.00;5073592;28;20058;-22
2021/08/25 01:27:18;;;;;;;8.85;4.88;;;;;;;21.20;53.61;99898.13;5092523;28;20076;-22
2021/08/25 01:29:43;;;;;;;7.95;5.10;;;;;;;21.25;53.99;99898.06;5076163;28;20035;-22
2021/08/25 01:32:10;;;;;;;8.18;5.50;;;;;;;20.92;53.10;99891.75;5110586;28;20786;-22
2021/08/25 01:35:01;;;;;;;7.47;4.82;;;;;;;21.06;52.77;99891.84;5110754;28;20110;-22
2021/08/25 01:37:27;;;;;;;9.38;5.55;;;;;;;20.82;54.00;99881.03;5105355;28;20038;-22
2021/08/25 01:39:52;;;;;;;9.23;5.15;;;;;;;21.50;53.10;99892.59;5110941;28;20070;-22
2021/08/25 01:42:18;;;;;;;9.43;4.88;;;;;;;21.89;51.35;99872.41;5110402;28;20031;-21
2021/08/25 01:44:45;;;;;;;9.07;5.78;;;;;;;21.64;51.45;99894.25;5110452;28;20119;-22
2021/08/25 01:47:10;;;;;;;7.78;5.00;;;;;;;21.54;51.93;99897.13;5110430;28;20403;-22
2021/08/25 01:49:36;;;;;;;8.15;4.97;;;;;;;21.25;53.28;99898.06;5110532;28;20039;-22
2021/08/25 01:52:02;;;;;;;8.77;5.07;;;;;;;21.62;52.42;99901.88;5110441;28;20032;-22
2021/08/25 01:54:27;;;;;;;7.80;4.63;;;;;;;21.71;51.80;99906.63;5110122;28;20049;-22
2021/08/25 01:56:53;;;;;;;8.40;5.43;;;;;;;22.06;50.73;99892.41;5110251;28;20034;-22
2021/08/25 01:59:19;;;;;;;8.02;5.07;;;;;;;22.41;49.97;99887.47;5110028;28;20055;-22
2021/08/25 02:01:44;;;;;;;8.05;4.95;;;;;;;22.19;50.31;99890.84;5110219;28;20127;-22
2021/08/25 02:04:10;;;;;;;8.52;5.18;;;;;;;22.03;50.86;99889.50;5109834;28;20020;-22
2021/08/25 02:06:35;;;;;;;7.30;5.13;;;;;;;22.41;49.97;99890.19;5110076;28;20461;-22
2021/08/25 02:09:01;;;;;;;8.68;5.00;;;;;;;22.56;49.31;99888.25;5110391;28;20026;-22
2021/08/25 02:11:26;;;;;;;9.07;5.28;;;;;;;22.64;49.14;99892.97;5110014;28;20028;-22
2021/08/25 02:13:52;;;;;;;8.82;4.97;;;;;;;22.51;49.27;99874.75;5109841;28;20472;-23
2021/08/25 02:16:18;;;;;;;9.20;5.47;;;;;;;22.64;48.89;99890.25;5109991;28;20028;-21
2021/08/25 02:18:43;;;;;;;7.80;5.47;;;;;;;22.70;48.78;99889.03;5110054;28;20034;-22
2021/08/25 02:21:09;;;;;;;7.53;4.97;;;;;;;22.58;49.04;99881.41;5109816;28;20039;-22
2021/08/25 02:23:34;;;;;;;8.80;5.78;;;;;;;22.51;49.21;99885.63;5109677;28;20027;-22
2021/08/25 02:26:00;;;;;;;9.35;5.28;;;;;;;22.54;49.17;99890.47;5109767;28;20109;-22
2021/08/25 02:28:25;;;;;;;8.13;5.70;;;;;;;22.10;50.52;99891.81;5109436;28;20047;-22
2021/08/25 02:30:51;;;;;;;9.05;6.03;;;;;;;22.33;49.75;99893.59;5109779;28;20088;-22
2021/08/25 02:33:16;;;;;;;11.15;5.65;;;;;;;22.68;48.72;99896.69;5109867;28;20506;-22
2021/08/25 02:35:42;;;;;;;11.30;5.80;;;;;;;22.35;49.56;99894.09;5109396;28;20039;-22
2021/08/25 02:38:07;;;;;;;8.57;5.72;;;;;;;21.92;50.55;99897.00;5108993;28;20097;-22
2021/08/25 02:40:33;;;;;;;10.05;5.97;;;;;;;21.37;52.38;99891.38;5109609;28;20042;-22
2021/08/25 02:42:58;;;;;;;13.10;6.47;;;;;;;22.01;50.34;99895.22;5109312;28;20027;-22
2021/08/25 02:45:23;;;;;;;8.63;6.20;;;;;;;22.08;50.52;99897.56;5109404;28;20027;-24
2021/08/25 02:47:49;;;;;;;10.02;6.10;;;;;;;21.86;50.87;99890.06;5109343;28;20028;-22
2021/08/25 02:50:15;;;;;;;11.98;6.60;;;;;;;21.88;50.89;99890.56;5109156;28;20043;-22
2021/08/25 02:52:40;;;;;;;14.05;6.70;;;;;;;22.17;50.87;99903.09;5109311;28;20028;-22
2021/08/25 02:55:06;;;;;;;14.15;6.65;;;;;;;22.25;50.47;99896.97;5109202;28;20023;-22
2021/08/25 02:57:31;;;;;;;35.92;8.80;;;;;;;22.32;49.86;99893.91;5108918;28;20068;-22
2021/08/25 02:59:57;;;;;;;12.70;6.00;;;;;;;22.33;49.84;99907.19;5108814;28;20515;-22
2021/08/25 03:02:22;;;;;;;10.32;6.20;;;;;;;21.87;51.11;99906.06;5108444;28;20020;-22
2021/08/25 03:04:48;;;;;;;14.38;5.90;;;;;;;21.74;51.63;99900.59;5108899;28;20024;-22
2021/08/25 03:07:13;;;;;;;11.40;6.30;;;;;;;22.10;50.73;99903.47;5108910;28;20024;-22
2021/08/25 03:09:39;;;;;;;10.10;6.05;;;;;;;21.51;51.90;99894.97;5109072;28;20027;-22
2021/08/25 03:12:04;;;;;;;15.70;6.60;;;;;;;21.66;51.90;99899.38;5108564;28;20042;-22
2021/08/25 03:14:30;;;;;;;17.10;6.43;;;;;;;21.37;52.60;99904.94;5108734;28;20027;-22
2021/08/25 03:16:55;;;;;;;12.18;6.22;;;;;;;21.35;52.74;99920.72;5108909;28;20043;-22
2021/08/25 03:19:21;;;;;;;27.23;7.50;;;;;;;21.10;52.87;99916.47;5108695;28;20030;-22
2021/08/25 03:21:46;;;;;;;12.05;5.85;;;;;;;20.99;53.27;99929.38;5108290;28;20027;-22
2021/08/25 03:24:12;;;;;;;9.20;6.10;;;;;;;20.78;53.52;99928.78;5108193;28;20043;-22
2021/08/25 03:26:37;;;;;;;11.40;6.97;;;;;;;20.62;54.07;99931.72;5108481;28;20027;-22
2021/08/25 03:29:03;;;;;;;11.70;6.60;;;;;;;20.97;53.31;99934.28;5108593;28;20039;-22
2021/08/25 03:31:28;;;;;;;12.35;6.25;;;;;;;20.73;53.48;99932.38;5108507;28;20099;-22
2021/08/25 03:33:54;;;;;;;11.40;6.20;;;;;;;20.98;53.12;99923.13;5108475;28;20019;-22
2021/08/25 03:36:19;;;;;;;14.55;6.57;;;;;;;21.13;53.31;99938.38;5108297;28;20080;-22
2021/08/25 03:38:45;;;;;;;15.52;6.53;;;;;;;21.52;51.69;99948.16;5108015;28;20032;-22
2021/08/25 03:41:11;;;;;;;12.25;6.50;;;;;;;21.31;52.45;99942.22;5106083;28;20047;-22
2021/08/25 03:43:36;;;;;;;10.65;6.28;;;;;;;21.22;52.73;99942.03;5108397;28;20498;-23
2021/08/25 03:46:02;;;;;;;14.07;6.57;;;;;;;21.54;51.68;99945.97;5108075;28;20028;-22
2021/08/25 03:48:27;;;;;;;11.55;6.53;;;;;;;21.54;51.48;99954.09;5090177;28;20036;-22
2021/08/25 03:50:53;;;;;;;10.35;5.95;;;;;;;21.87;50.54;99954.13;5108016;28;20032;-22
2021/08/25 03:53:18;;;;;;;13.63;6.43;;;;;;;21.93;50.32;99958.38;5107956;28;20589;-22
2021/08/25 03:55:44;;;;;;;16.60;5.55;;;;;;;21.91;50.19;99955.16;5108149;28;20028;-22
2021/08/25 03:58:09;;;;;;;10.43;5.38;;;;;;;21.78;50.37;99955.88;5107611;28;20031;-22
2021/08/25 04:00:35;;;;;;;17.08;6.85;;;;;;;21.57;50.51;99952.69;5107970;28;20058;-22
2021/08/25 04:03:00;;;;;;;10.55;5.70;;;;;;;21.66;50.72;99954.44;5107955;28;20038;-22
2021/08/25 04:05:26;;;;;;;10.38;5.50;;;;;;;21.55;50.75;99955.69;5107831;28;20035;-23
2021/08/25 04:07:51;;;;;;;9.98;5.22;;;;;;;22.07;49.63;99964.63;5089673;28;20030;-22
2021/08/25 04:10:17;;;;;;;11.98;5.40;;;;;;;22.25;49.13;99978.47;5107541;28;20031;-22
2021/08/25 04:12:42;;;;;;;11.10;5.70;;;;;;;21.92;49.81;99974.94;5107672;28;20016;-22
2021/08/25 04:15:08;;;;;;;12.93;6.13;;;;;;;22.05;49.70;99971.47;5107850;28;20058;-22
2021/08/25 04:17:33;;;;;;;9.75;5.35;;;;;;;22.34;48.89;99968.53;5108031;28;20458;-22
2021/08/25 04:19:59;;;;;;;13.85;7.35;;;;;;;22.19;49.13;99971.50;5107869;28;20767;-22
2021/08/25 04:22:24;;;;;;;11.90;5.95;;;;;;;21.86;50.00;99963.34;5107281;28;20027;-22
2021/08/25 04:24:50;;;;;;;10.05;6.63;;;;;;;21.74;50.42;99971.16;5107571;28;20035;-22
2021/08/25 04:27:15;;;;;;;8.73;5.22;;;;;;;21.89;49.69;99983.69;5107569;28;20031;-22
2021/08/25 04:29:41;;;;;;;10.70;5.97;;;;;;;21.97;49.56;99983.03;5107610;28;20036;-22
2021/08/25 04:32:07;;;;;;;8.57;5.55;;;;;;;22.08;49.48;99987.97;5107561;28;20032;-22
2021/08/25 04:34:32;;;;;;;10.50;5.55;;;;;;;21.84;49.85;99985.41;5107855;28;20035;-22
2021/08/25 04:36:58;;;;;;;12.30;5.32;;;;;;;22.29;48.91;99990.34;5107576;28;20037;-22
2021/08/25 04:39:23;;;;;;;9.73;5.85;;;;;;;22.26;49.11;99969.22;5107463;28;20039;-22
2021/08/25 04:41:48;;;;;;;8.93;5.45;;;;;;;22.33;48.89;99977.81;5107296;28;20364;-23
2021/08/25 04:44:14;;;;;;;9.25;5.90;;;;;;;22.57;48.06;99971.38;5107220;28;20027;-22
2021/08/25 04:46:39;;;;;;;13.35;6.10;;;;;;;22.42;48.65;99976.00;5107331;28;20384;-22
2021/08/25 04:49:05;;;;;;;7.53;5.20;;;;;;;22.48;48.87;99974.00;5107327;28;20042;-22
2021/08/25 04:51:30;;;;;;;11.80;6.03;;;;;;;22.60;48.67;99974.31;5107566;28;20387;-22
2021/08/25 04:53:56;;;;;;;10.45;6.20;;;;;;;22.13;50.07;99973.50;5107507;28;20027;-22
2021/08/25 04:56:21;;;;;;;10.00;6.00;;;;;;;22.14;49.66;99975.09;5106953;28;20032;-22
2021/08/25 04:58:47;;;;;;;12.18;5.80;;;;;;;22.24;49.48;99974.16;5088755;28;20027;-22
2021/08/25 05:01:12;;;;;;;8.45;5.50;;;;;;;22.26;49.28;99966.53;5111407;28;20407;-22
2021/08/25 05:03:38;;;;;;;7.45;5.55;;;;;;;22.52;48.59;99957.91;5111320;28;20035;-22
2021/08/25 05:06:10;;;;;;;9.40;6.10;;;;;;;22.67;48.42;99973.91;5111109;28;20027;-22
2021/08/25 05:08:36;;;;;;;19.50;7.07;;;;;;;22.41;49.39;99965.44;5111219;28;20035;-22
2021/08/25 05:11:01;;;;;;;11.18;6.40;;;;;;;22.55;48.59;99968.16;5111090;28;20455;-22
2021/08/25 05:13:27;;;;;;;12.95;6.30;;;;;;;22.75;48.26;99962.31;5111191;28;20034;-22
2021/08/25 05:15:52;;;;;;;11.27;7.78;;;;;;;22.65;49.00;99967.97;5111197;28;20024;-22
2021/08/25 05:18:18;;;;;;;11.90;6.95;;;;;;;22.39;49.81;99964.91;5110946;28;20031;-22
2021/08/25 05:20:43;;;;;;;11.40;7.25;;;;;;;22.52;49.66;99956.00;5111104;28;20502;-22
2021/08/25 05:23:09;;;;;;;11.75;6.95;;;;;;;22.67;49.37;99935.84;5110872;28;20036;-22
2021/08/25 05:25:34;;;;;;;14.25;7.15;;;;;;;22.72;49.66;99953.97;5111037;28;20058;-22
2021/08/25 05:28:00;;;;;;;9.70;7.22;;;;;;;22.85;49.01;99956.69;5110815;28;20496;-22
2021/08/25 05:30:25;;;;;;;11.43;6.47;;;;;;;22.41;50.66;99944.50;5110576;28;20054;-22
2021/08/25 05:32:53;;;;;;;9.45;6.32;;;;;;;22.79;49.60;99952.44;5111221;28;20031;-22
2021/08/25 05:35:19;;;;;;;11.20;7.63;;;;;;;22.18;51.72;99942.72;5110801;28;20519;-22
2021/08/25 05:37:46;;;;;;;11.18;6.88;;;;;;;22.07;52.62;99958.41;5110735;28;20114;-22
2021/08/25 05:40:13;;;;;;;10.18;6.78;;;;;;;22.15;52.66;99943.31;5110283;28;20036;-22
2021/08/25 05:42:39;;;;;;;9.77;6.97;;;;;;;22.32;51.11;99919.13;5110568;28;20487;-22
2021/08/25 05:45:05;;;;;;;8.88;6.40;;;;;;;22.89;49.94;99934.34;5110969;28;20114;-22
2021/08/25 05:47:31;;;;;;;9.32;6.50;;;;;;;22.44;51.97;99929.50;5110486;28;20080;-22
2021/08/25 05:49:56;;;;;;;9.25;6.20;;;;;;;22.64;50.51;99925.59;5110604;28;20039;-22
2021/08/25 05:52:21;;;;;;;10.82;6.50;;;;;;;22.69;51.80;99925.47;5110084;28;20016;-22
2021/08/25 05:54:47;;;;;;;10.85;6.95;;;;;;;22.62;51.41;99925.88;5110501;28;20035;-22
2021/08/25 05:57:12;;;;;;;12.35;7.63;;;;;;;22.99;49.91;99928.69;5110175;28;20024;-22
2021/08/25 05:59:38;;;;;;;13.05;7.32;;;;;;;23.18;50.81;99931.28;5110122;28;20523;-22
2021/08/25 06:02:03;;;;;;;10.98;7.60;;;;;;;22.98;51.66;99930.56;5110008;28;20023;-22
2021/08/25 06:04:29;;;;;;;10.38;6.22;;;;;;;23.12;50.72;99921.63;5110164;28;20031;-22
2021/08/25 06:06:54;;;;;;;9.15;6.30;;;;;;;23.33;49.35;99921.94;5110292;28;20032;-22
2021/08/25 06:09:20;;;;;;;13.05;8.32;;;;;;;23.40;51.23;99919.63;5110046;28;20038;-22
2021/08/25 06:11:45;;;;;;;11.20;6.68;;;;;;;23.45;50.60;99924.94;5108904;28;20487;-22
2021/08/25 06:14:11;;;;;;;15.15;8.15;;;;;;;23.29;51.78;99927.19;5109753;28;20027;-22
2021/08/25 06:16:38;;;;;;;10.77;7.65;;;;;;;23.27;52.24;99913.91;5110013;28;20042;-22
2021/08/25 06:19:03;;;;;;;15.27;7.57;;;;;;;23.82;50.45;99918.34;5091670;28;20042;-22
2021/08/25 06:21:29;;;;;;;10.75;8.38;;;;;;;23.43;53.86;99913.56;5110309;28;20407;-22
2021/08/25 06:23:54;;;;;;;13.05;7.65;;;;;;;23.53;52.87;99920.69;5110005;28;20028;-22
2021/08/25 06:26:20;;;;;;;12.13;8.15;;;;;;;23.59;53.01;99922.16;5109592;28;20107;-22
2021/08/25 06:28:45;;;;;;;12.57;7.50;;;;;;;23.58;52.30;99917.81;5109947;28;20051;-22
2021/08/25 06:31:11;;;;;;;9.73;6.80;;;;;;;23.32;54.92;99920.34;5109606;28;20035;-22
2021/08/25 06:33:36;;;;;;;14.00;8.45;;;;;;;23.16;54.35;99914.44;5109291;28;20419;-22
2021/08/25 06:36:01;;;;;;;20.00;9.45;;;;;;;23.33;52.55;99921.94;5109504;28;20031;-22
2021/08/25 06:38:27;;;;;;;11.98;8.65;;;;;;;23.42;52.90;99903.78;5109528;28;20031;-22
2021/08/25 06:40:52;;;;;;;12.23;7.95;;;;;;;23.45;53.30;99914.84;5091449;28;20038;-23
2021/08/25 06:43:18;;;;;;;13.55;7.40;;;;;;;23.93;51.51;99918.09;5109561;28;20055;-22
2021/08/25 06:45:43;;;;;;;12.25;7.78;;;;;;;24.24;50.79;99909.91;5109226;28;20038;-22
2021/08/25 06:48:09;;;;;;;11.32;7.40;;;;;;;24.43;50.98;99918.63;5108896;28;20092;-22
2021/08/25 06:50:34;;;;;;;12.35;7.00;;;;;;;24.49;49.63;99919.28;5109268;28;20042;-22
2021/08/25 06:53:00;;;;;;;12.95;7.82;;;;;;;24.42;50.78;99910.78;5109214;28;20034;-22
2021/08/25 06:55:25;;;;;;;12.02;7.10;;;;;;;24.12;51.22;99915.13;5109777;28;20039;-22
2021/08/25 06:57:51;;;;;;;8.77;6.68;;;;;;;24.56;50.44;99914.22;5109792;28;20059;-22
2021/08/25 07:00:18;;;;;;;9.93;6.60;;;;;;;23.89;51.80;99887.16;5108716;28;20056;-22
2021/08/25 07:02:43;;;;;;;11.43;7.13;;;;;;;23.70;53.68;99909.09;5108681;28;20415;-21
2021/08/25 07:05:09;;;;;;;9.35;6.70;;;;;;;23.95;53.00;99905.75;5108890;28;20027;-22
2021/08/25 07:07:35;;;;;;;11.20;7.13;;;;;;;24.49;52.89;99902.94;5108891;28;20388;-22
2021/08/25 07:10:00;;;;;;;11.50;7.10;;;;;;;24.95;51.44;99914.47;5108859;28;20084;-22
2021/08/25 07:12:26;;;;;;;9.75;6.68;;;;;;;24.73;50.89;99910.75;5108738;28;20059;-22
2021/08/25 07:14:53;;;;;;;10.63;7.05;;;;;;;24.88;50.71;99914.13;5108990;28;20035;-22
2021/08/25 07:17:18;;;;;;;8.60;6.45;;;;;;;25.05;49.33;99903.25;5108686;28;20111;-22
2021/08/25 07:19:44;;;;;;;9.15;6.53;;;;;;;25.13;49.50;99910.66;5108736;28;20039;-22
2021/08/25 07:22:09;;;;;;;10.30;6.95;;;;;;;25.22;48.40;99899.75;5108329;28;20024;-21
2021/08/25 07:24:35;;;;;;;13.75;7.57;;;;;;;25.69;47.67;99901.81;5090328;28;20047;-22
2021/08/25 07:27:00;;;;;;;12.05;7.10;;;;;;;25.54;48.87;99914.00;5108650;28;20490;-22
2021/08/25 07:29:26;;;;;;;8.93;6.57;;;;;;;25.35;48.82;99906.16;5108408;28;20031;-22
2021/08/25 07:31:51;;;;;;;10.25;6.53;;;;;;;25.22;48.84;99900.56;5108274;28;20027;-22
2021/08/25 07:34:17;;;;;;;8.52;6.10;;;;;;;25.48;48.98;99920.75;5108082;28;20572;-22
2021/08/25 07:36:42;;;;;;;10.82;6.03;;;;;;;25.74;48.56;99912.53;5108683;28;20040;-22
2021/08/25 07:39:08;;;;;;;9.32;5.82;;;;;;;25.62;48.48;99913.19;5108488;28;20039;-22
2021/08/25 07:41:33;;;;;;;9.18;5.90;;;;;;;26.27;47.46;99914.03;5108199;28;20027;-22
2021/08/25 07:43:59;;;;;;;10.05;6.65;;;;;;;26.22;47.05;99895.88;5108185;28;20028;-22
2021/08/25 07:46:32;;;;;;;9.13;6.07;;;;;;;26.39;46.69;99896.94;5107750;28;20043;-22
2021/08/25 07:48:57;;;;;;;10.35;6.40;;;;;;;26.72;45.95;99913.50;5108400;28;20034;-22
2021/08/25 07:51:23;;;;;;;9.02;5.93;;;;;;;27.01;44.22;99914.59;5107804;28;20024;-22
2021/08/25 07:53:48;;;;;;;8.52;5.80;;;;;;;27.06;44.21;99917.16;5108080;28;20023;-22
2021/08/25 07:56:13;;;;;;;8.50;5.78;;;;;;;27.31;43.09;99900.88;5108367;28;20445;-22
2021/08/25 07:58:39;;;;;;;9.55;6.15;;;;;;;27.04;43.44;99906.53;5108210;28;20046;-22
2021/08/25 08:01:04;;;;;;;8.93;5.68;;;;;;;27.11;44.16;99902.47;5107953;28;20057;-22
2021/08/25 08:03:30;;;;;;;7.70;5.72;;;;;;;27.07;43.93;99907.78;5107953;28;20453;-21
2021/08/25 08:05:55;;;;;;;11.60;5.63;;;;;;;26.77;44.02;99888.69;5108016;28;20032;-22
2021/08/25 08:08:21;;;;;;;8.77;5.57;;;;;;;26.90;45.08;99889.56;5107880;28;20032;-22
2021/08/25 08:10:46;;;;;;;9.48;5.90;;;;;;;27.06;43.83;99895.25;5107827;28;20054;-22
2021/08/25 08:13:12;;;;;;;10.75;5.93;;;;;;;26.90;44.50;99880.56;5107942;28;20407;-22
2021/08/25 08:15:37;;;;;;;9.52;5.85;;;;;;;27.43;43.15;99888.03;5107590;28;20040;-22
2021/08/25 08:18:11;;;;;;;10.38;5.50;;;;;;;27.59;42.62;99893.69;5107653;28;20851;-22
2021/08/25 08:20:37;;;;;;;7.72;5.35;;;;;;;27.72;41.44;99899.19;5108113;28;20137;-22
2021/08/25 08:23:02;;;;;;;8.45;5.65;;;;;;;27.43;42.49;99887.25;5107783;28;20019;-22
2021/08/25 08:25:28;;;;;;;7.68;5.35;;;;;;;27.25;42.66;99873.69;5108210;28;20115;-22
2021/08/25 08:27:53;;;;;;;14.40;5.78;;;;;;;27.86;41.67;99872.28;5107599;28;20031;-22
2021/08/25 08:30:19;;;;;;;11.43;5.75;;;;;;;27.31;43.82;99857.88;5107003;28;20031;-22
2021/08/25 08:32:44;;;;;;;8.18;5.47;;;;;;;27.35;42.61;99868.97;5107963;28;20028;-22
2021/08/25 08:35:10;;;;;;;7.28;5.85;;;;;;;27.65;43.78;99862.19;5106973;28;20552;-29
2021/08/25 08:37:35;;;;;;;7.60;5.50;;;;;;;27.81;42.87;99864.31;5107711;28;20028;-22
2021/08/25 08:40:01;;;;;;;9.65;5.50;;;;;;;27.81;41.54;99864.31;5107635;28;20050;-22
2021/08/25 08:42:37;;;;;;;10.75;6.05;;;;;;;27.91;41.89;99847.44;5107655;28;20040;-22
2021/08/25 08:45:03;;;;;;;9.05;5.50;;;;;;;28.18;40.04;99856.16;5107455;28;20096;-22
2021/08/25 08:47:29;;;;;;;12.15;5.43;;;;;;;28.24;40.88;99839.13;5089441;28;20020;-22
2021/08/25 08:49:59;;;;;;;8.52;4.80;;;;;;;28.15;41.11;99856.81;5089234;28;20035;-22
2021/08/25 08:52:25;;;;;;;7.22;4.80;;;;;;;28.35;39.98;99841.41;5107139;28;20110;-22
2021/08/25 08:54:51;;;;;;;9.95;5.35;;;;;;;27.99;40.17;99826.53;5107443;28;20039;-22
2021/08/25 08:57:17;;;;;;;7.78;4.78;;;;;;;28.34;40.15;99840.59;5107232;28;20082;-22
2021/08/25 08:59:43;;;;;;;9.90;4.85;;;;;;;28.41;39.11;99824.34;5106932;28;20082;-22
2021/08/25 09:02:10;;;;;;;9.38;4.90;;;;;;;28.21;39.65;99828.03;5107003;28;20786;-22
2021/08/25 09:04:36;;;;;;;8.40;5.13;;;;;;;28.62;39.04;99815.22;5107445;28;20448;-22
2021/08/25 09:07:02;;;;;;;8.07;4.70;;;;;;;29.04;37.64;99825.84;5107344;28;20023;-22
2021/08/25 09:09:28;;;;;;;7.57;4.78;;;;;;;29.60;37.32;99809.31;5107355;28;20142;-22
2021/08/25 09:11:54;;;;;;;6.80;3.92;;;;;;;29.20;36.38;99804.75;5089047;28;20082;-22
2021/08/25 09:14:20;;;;;;;8.05;4.85;;;;;;;29.36;37.54;99776.50;5107066;28;20031;-22
2021/08/25 09:16:45;;;;;;;7.38;4.68;;;;;;;29.35;36.20;99789.44;5088679;28;20046;-22
2021/08/25 09:19:13;;;;;;;10.90;4.38;;;;;;;29.08;37.32;99782.81;5107274;28;20548;-23
2021/08/25 09:21:46;;;;;;;8.88;4.68;;;;;;;28.89;38.06;99779.91;5106842;28;20467;-22
2021/08/25 09:24:12;;;;;;;8.05;4.78;;;;;;;29.31;37.20;99779.53;5089387;28;20031;-22
2021/08/25 09:26:57;;;;;;;8.00;4.30;;;;;;;29.61;36.81;99777.94;5106867;28;20456;-22
2021/08/25 09:29:23;;;;;;;5.65;3.70;;;;;;;29.08;33.17;99771.81;5091588;28;20491;-23
2021/08/25 09:31:50;;;;;;;8.10;4.15;;;;;;;29.21;33.04;99780.81;5106926;28;20031;-22
2021/08/25 09:34:32;;;;;;;7.45;4.40;;;;;;;29.97;32.79;99778.81;5106496;28;20042;-22
2021/08/25 09:37:11;;;;;;;9.52;4.60;;;;;;;30.49;32.97;99776.91;5105812;28;20036;-22
2021/08/25 09:39:43;;;;;;;7.55;4.85;;;;;;;30.51;33.06;99782.03;5107064;28;20028;-22
2021/08/25 09:42:10;;;;;;;6.90;4.00;;;;;;;30.19;33.01;99773.84;5107048;28;20046;-23
2021/08/25 09:44:35;;;;;;;6.43;4.07;;;;;;;30.18;32.36;99772.22;5088812;28;20169;-22
2021/08/25 09:47:01;;;;;;;6.43;3.75;;;;;;;30.37;31.20;99775.06;5092321;28;20446;-22
2021/08/25 09:49:26;;;;;;;6.63;4.00;;;;;;;30.52;31.88;99775.38;5110230;28;20039;-22
2021/08/25 09:51:54;;;;;;;7.30;4.03;;;;;;;30.46;31.55;99783.09;5110254;28;20024;-23
2021/08/25 09:54:20;;;;;;;7.20;4.32;;;;;;;30.85;30.68;99772.09;5092066;28;20084;-22
2021/08/25 09:56:45;;;;;;;11.60;5.85;;;;;;;31.42;28.87;99766.91;5110538;28;20032;-22
2021/08/25 09:59:12;;;;;;;10.20;4.72;;;;;;;31.43;29.73;99757.47;5110211;28;20403;-22
2021/08/25 10:01:38;;;;;;;12.38;6.82;;;;;;;31.52;29.47;99765.53;5110373;28;20503;-22
2021/08/25 10:04:06;;;;;;;6.32;3.92;;;;;;;31.90;28.97;99753.53;5091723;28;20036;-23
2021/08/25 10:06:31;;;;;;;7.82;3.60;;;;;;;31.35;28.36;99761.28;5109895;28;20028;-22
2021/08/25 10:08:57;;;;;;;6.15;4.13;;;;;;;30.99;30.59;99766.13;5110109;28;20038;-23
2021/08/25 10:11:29;;;;;;;6.97;3.63;;;;;;;31.14;26.85;99762.47;5110189;28;20031;-23
2021/08/25 10:13:55;;;;;;;7.90;3.55;;;;;;;31.62;26.51;99765.69;5110002;28;20031;-23
2021/08/25 10:16:44;;;;;;;5.85;3.67;;;;;;;31.62;28.16;99754.66;5074639;28;20032;-22
2021/08/25 10:19:29;;;;;;;7.18;4.25;;;;;;;31.93;27.07;99752.00;5091649;28;20031;-22
2021/08/25 10:22:15;;;;;;;6.43;3.13;;;;;;;31.85;25.79;99751.09;5110012;28;20031;-22
2021/08/25 10:24:55;;;;;;;5.38;3.40;;;;;;;31.71;25.45;99753.63;5091953;28;20048;-22
2021/08/25 10:27:21;;;;;;;5.13;3.10;;;;;;;32.12;25.00;99753.88;5110273;28;20035;-22
2021/08/25 10:30:05;;;;;;;5.55;3.15;;;;;;;32.26;24.26;99742.25;5109923;28;20046;-22
2021/08/25 10:32:50;;;;;;;5.63;3.30;;;;;;;32.69;25.23;99754.66;5109507;28;20024;-22
2021/08/25 10:35:17;;;;;;;6.32;3.75;;;;;;;33.16;24.06;99750.47;5091564;28;20557;-22
2021/08/25 10:37:44;;;;;;;6.60;4.00;;;;;;;33.24;25.21;99745.78;5109778;28;20094;-22
2021/08/25 10:40:10;;;;;;;5.90;4.03;;;;;;;32.81;26.47;99748.06;5091381;28;20032;-22
2021/08/25 10:43:05;;;;;;;6.90;3.88;;;;;;;32.80;25.05;99750.06;5109272;28;20019;-22
2021/08/25 10:45:50;;;;;;;6.18;4.10;;;;;;;32.75;24.93;99736.56;5087549;28;20065;-22
2021/08/25 10:48:16;;;;;;;8.85;4.50;;;;;;;32.40;27.05;99734.94;5109370;28;20085;-22
2021/08/25 10:50:55;;;;;;;6.35;3.70;;;;;;;31.70;26.47;99721.72;5109507;28;20035;-22
2021/08/25 10:53:32;;;;;;;6.97;4.07;;;;;;;32.35;27.41;99715.19;5109308;28;20016;-22
2021/08/25 10:56:11;;;;;;;8.90;4.15;;;;;;;32.61;26.51;99714.31;5109135;28;20028;-22
2021/08/25 10:58:47;;;;;;;5.68;3.80;;;;;;;32.88;25.85;99712.28;5108360;28;20620;-22
2021/08/25 11:01:21;;;;;;;7.00;4.50;;;;;;;33.20;26.95;99712.63;5109435;28;20111;-22
2021/08/25 11:03:48;;;;;;;7.43;4.28;;;;;;;33.37;25.50;99704.88;5108829;28;20111;-22
2021/08/25 11:06:33;;;;;;;6.35;4.32;;;;;;;33.51;26.51;99704.97;5108595;28;20062;-23
2021/08/25 11:09:18;;;;;;;7.38;4.32;;;;;;;33.30;25.68;99699.25;5109243;28;20479;-22
2021/08/25 11:11:57;;;;;;;6.93;4.45;;;;;;;33.83;25.42;99693.34;5109075;28;20055;-22
2021/08/25 11:14:27;;;;;;;5.78;3.83;;;;;;;32.91;26.37;99691.38;5108703;28;20645;-22
2021/08/25 11:16:55;;;;;;;6.38;4.38;;;;;;;32.96;24.82;99680.00;5109014;28;20129;-22
2021/08/25 11:19:25;;;;;;;7.80;4.50;;;;;;;33.49;25.41;99673.34;5108703;28;20027;-22
2021/08/25 11:21:50;;;;;;;8.57;5.32;;;;;;;33.42;25.67;99663.03;5090288;28;20032;-22
2021/08/25 11:24:16;;;;;;;7.95;4.32;;;;;;;33.13;25.53;99668.34;5108535;28;20055;-22
2021/08/25 11:26:41;;;;;;;6.70;4.25;;;;;;;33.18;25.56;99653.38;5108689;28;20027;-22
2021/08/25 11:29:21;;;;;;;12.07;3.90;;;;;;;33.23;24.08;99667.63;5108594;28;20039;-22